Time;durP1;ratioP1;P1;durP2;ratioP2;P2;SDS_P1;SDS_P2;PMS_P1;PMS_P2;Temp;Humidity;BMP_temperature;BMP_pressure;BME280_temperature;BME280_humidity;BME280_pressure;Samples;Min_cycle;Max_cycle;Signal;HPM_P1;HPM_P2
2023/10/25 09:53:50;;;;;;;;;;;13.40;76.90;;;12.54;70.33;95198.19;5622740;23;13431685;-88
2023/10/25 09:57:11;;;;;;;;;;;13.50;77.00;;;12.55;70.10;95186.09;6145164;23;20272;-88
2023/10/25 09:59:53;;;;;;;;;;;13.50;76.80;;;12.57;70.21;95175.63;6137343;23;19944;-88
2023/10/25 10:02:33;;;;;;;;;;;13.50;76.90;;;12.59;70.01;95162.38;6147303;23;19920;-88
2023/10/25 10:05:17;;;;;;;;;;;13.50;76.70;;;12.61;69.95;95164.00;6113704;23;19920;-88
2023/10/25 10:08:13;;;;;;;;;;;13.60;76.60;;;12.64;70.21;95161.47;6138916;23;19943;-88
2023/10/25 10:10:46;;;;;;;;;;;13.50;76.50;;;12.62;69.75;95157.38;6112637;23;19924;-88
2023/10/25 10:13:15;;;;;;;;;;;13.60;76.30;;;12.63;69.70;95150.78;6112612;23;19921;-88
2023/10/25 10:16:00;;;;;;;;;;;13.60;76.40;;;12.64;69.83;95141.41;6138753;23;20333;-88
2023/10/25 10:18:32;;;;;;;;;;;13.60;76.30;;;12.65;69.87;95145.78;6141067;23;20252;-88
2023/10/25 10:21:01;;;;;;;;;;;13.60;76.30;;;12.67;69.94;95157.28;6137981;23;19928;-89
2023/10/25 10:23:36;;;;;;;;;;;13.60;76.40;;;12.67;70.40;95151.78;6136318;23;19925;-89
2023/10/25 10:26:07;;;;;;;;;;;13.60;76.70;;;12.69;69.95;95149.56;6112136;23;19920;-89
2023/10/25 10:28:41;;;;;;;;;;;13.70;76.50;;;12.67;70.00;95151.78;6112479;23;19928;-89
2023/10/25 10:31:10;;;;;;;;;;;13.60;76.60;;;12.68;70.46;95161.66;6136113;23;19921;-89
2023/10/25 10:34:02;;;;;;;;;;;13.60;76.90;;;12.64;70.16;95150.50;6136660;23;19921;-88
2023/10/25 10:36:37;;;;;;;;;;;13.60;76.50;;;12.64;70.23;95164.22;6136607;23;19928;-88
2023/10/25 10:39:13;;;;;;;;;;;13.60;76.40;;;12.63;70.18;95167.25;6112578;23;19920;-89
2023/10/25 10:42:01;;;;;;;;;;;13.60;76.80;;;12.58;70.17;95154.47;6113424;23;20379;-89
2023/10/25 10:44:35;;;;;;;;;;;13.60;76.60;;;12.58;70.09;95160.78;6136713;23;19921;-89
2023/10/25 10:47:35;;;;;;;;;;;13.50;76.70;;;12.57;70.16;95164.63;6136935;23;19920;-89
2023/10/25 10:50:30;;;;;;;;;;;13.50;76.80;;;12.55;70.05;95177.84;6114122;23;19921;-89
2023/10/25 10:57:27;;;;;;;;;;;13.50;76.90;;;12.49;70.25;95167.28;6107759;23;19932;-88
2023/10/25 11:00:01;;;;;;;;;;;13.50;76.80;;;12.50;70.25;95180.69;6111879;23;19928;-89
2023/10/25 11:02:35;;;;;;;;;;;13.40;76.80;;;12.46;70.32;95168.69;6113098;23;20260;-89
2023/10/25 11:05:23;;;;;;;;;;;13.40;76.80;;;12.47;70.35;95166.78;6114392;23;19921;-89
2023/10/25 11:07:54;;;;;;;;;;;13.40;76.90;;;12.44;70.21;95165.47;6113189;23;20333;-89
2023/10/25 11:10:23;;;;;;;;;;;13.40;76.90;;;12.43;70.29;95169.34;6112237;23;19920;-89
2023/10/25 11:13:00;;;;;;;;;;;13.40;76.90;;;12.44;70.65;95165.47;6113092;23;19927;-89
2023/10/25 11:15:39;;;;;;;;;;;13.40;77.10;;;12.44;70.74;95160.00;6113554;23;20248;-89
2023/10/25 11:18:36;;;;;;;;;;;13.40;77.10;;;12.43;70.38;95163.84;6112464;23;20337;-89
2023/10/25 11:25:22;;;;;;;;;;;13.40;77.00;;;12.50;70.38;95169.72;6115683;23;19927;-89
2023/10/25 11:28:41;;;;;;;;;;;;;;;;;;;;;
2023/10/25 11:31:41;;;;;;;;;;;13.40;76.90;;;12.48;70.39;95163.72;6077343;23;20257;-89
2023/10/25 11:34:56;;;;;;;;;;;13.40;76.80;;;12.46;70.15;95156.94;6116506;23;20356;-89
2023/10/25 11:41:28;;;;;;;;;;;13.40;76.80;;;12.43;70.46;95158.38;6136917;23;19932;-89
2023/10/25 11:44:27;;;;;;;;;;;;;;;;;;;;;
2023/10/25 11:51:23;;;;;;;;;;;13.40;77.20;;;12.38;70.68;95172.19;6105912;23;19925;-89
2023/10/25 11:55:27;;;;;;;;;;;;;;;;;;;;;
2023/10/25 12:06:02;;;;;;;;;;;;;;;;;;;;;
2023/10/25 12:10:10;;;;;;;;;;;;;;;;;;;;;
2023/10/25 12:13:39;;;;;;;;;;;13.30;77.30;;;12.33;70.82;95156.66;6136764;23;19921;-89
2023/10/25 12:21:42;;;;;;;;;;;13.30;77.60;;;12.35;70.92;95181.03;6005620;23;20041;-89
2023/10/25 12:25:25;;;;;;;;;;;13.30;77.50;;;12.35;70.78;95183.78;6110335;23;19928;-89
2023/10/25 12:32:55;;;;;;;;;;;13.30;77.60;;;12.35;70.72;95194.75;5992260;23;20334;-89
2023/10/25 12:36:37;;;;;;;;;;;13.30;77.50;;;12.32;70.93;95178.91;6034182;23;19921;-89
